Time;durP1;ratioP1;P1;durP2;ratioP2;P2;SDS_P1;SDS_P2;PMS_P1;PMS_P2;Temp;Humidity;BMP_temperature;BMP_pressure;BME280_temperature;BME280_humidity;BME280_pressure;Samples;Min_cycle;Max_cycle;Signal;HPM_P1;HPM_P2
2021/11/02 00:02:10;;;;;;;0.20;0.15;;;20.60;37.60;20.90;92598.00;;;;10393240;28;45313;-61
2021/11/02 00:07:11;;;;;;;0.28;0.20;;;20.50;37.60;20.90;92605.00;;;;10393661;28;45123;-61
2021/11/02 00:12:12;;;;;;;0.30;0.20;;;20.50;37.80;20.90;92604.00;;;;10392719;28;45433;-61
2021/11/02 00:17:21;;;;;;;0.20;0.20;;;20.60;37.60;20.90;92594.00;;;;10391507;28;45296;-60
2021/11/02 00:22:23;;;;;;;0.30;0.10;;;20.60;37.50;20.90;92578.00;;;;10402220;28;48154;-61
2021/11/02 00:27:26;;;;;;;1.00;0.10;;;20.50;37.50;20.90;92593.00;;;;10475433;28;45434;-61
2021/11/02 00:32:27;;;;;;;1.30;0.20;;;20.50;37.40;20.90;92612.00;;;;10475064;28;46187;-60
2021/11/02 00:37:28;;;;;;;0.30;0.17;;;20.50;37.60;20.90;92589.00;;;;10474904;28;46553;-61
2021/11/02 00:42:38;;;;;;;0.47;0.20;;;20.50;37.40;20.90;92584.00;;;;10475183;28;46331;-61
2021/11/02 00:47:40;;;;;;;0.10;0.10;;;20.50;37.60;20.90;92599.00;;;;10470318;28;46381;-61
2021/11/02 00:52:41;;;;;;;0.20;0.20;;;20.50;37.40;20.90;92605.00;;;;10432997;28;45196;-61
2021/11/02 00:57:41;;;;;;;0.50;0.13;;;20.50;37.60;20.80;92594.00;;;;10432514;28;45444;-60
2021/11/02 01:02:43;;;;;;;0.52;0.20;;;20.50;37.40;20.80;92598.00;;;;10432287;28;45212;-61
2021/11/02 01:07:43;;;;;;;0.40;0.10;;;20.50;37.40;20.80;92572.00;;;;10431861;28;47177;-61
2021/11/02 01:12:48;;;;;;;0.40;0.20;;;20.50;37.30;20.80;92572.00;;;;10432282;28;46743;-61
2021/11/02 01:17:49;;;;;;;0.28;0.13;;;20.50;37.40;20.80;92592.00;;;;10431207;28;46248;-61
2021/11/02 01:22:50;;;;;;;0.20;0.10;;;20.50;37.30;20.80;92584.00;;;;10441063;28;45230;-60
2021/11/02 01:27:51;;;;;;;1.23;0.20;;;20.50;37.40;20.80;92580.00;;;;10472864;28;46963;-61
2021/11/02 01:32:53;;;;;;;0.30;0.20;;;20.40;37.30;20.80;92584.00;;;;10473050;28;48597;-61
2021/11/02 01:37:55;;;;;;;0.60;0.10;;;20.40;37.30;20.80;92576.00;;;;10472900;28;45536;-60
2021/11/02 01:42:55;;;;;;;2.45;0.20;;;20.40;37.30;20.80;92591.00;;;;10474726;28;46000;-61
2021/11/02 01:47:57;;;;;;;0.35;0.10;;;20.40;37.40;20.80;92595.00;;;;10464903;28;45222;-60
2021/11/02 01:52:59;;;;;;;0.98;0.10;;;20.40;37.30;20.80;92587.00;;;;10431592;28;45447;-61
2021/11/02 01:57:59;;;;;;;0.75;0.17;;;20.40;37.20;20.80;92588.00;;;;10431073;28;46043;-61
2021/11/02 02:03:30;;;;;;;0.70;0.20;;;20.40;37.20;20.80;92576.00;;;;10425275;28;45290;-61
2021/11/02 02:08:48;;;;;;;0.43;0.20;;;20.40;37.30;20.70;92560.00;;;;10430393;28;46503;-60
2021/11/02 02:13:58;;;;;;;0.30;0.10;;;20.40;37.30;20.80;92567.00;;;;10433377;28;45358;-61
2021/11/02 02:19:37;;;;;;;0.60;0.10;;;20.40;37.20;20.70;92572.00;;;;10438110;28;45470;-60
2021/11/02 02:25:06;;;;;;;0.22;0.13;;;20.40;37.20;20.70;92565.00;;;;10461270;28;46835;-61
2021/11/02 02:30:14;;;;;;;0.08;0.00;;;20.40;37.20;20.70;92549.00;;;;10479012;28;45249;-61
2021/11/02 02:35:18;;;;;;;0.00;0.00;;;20.40;37.90;20.70;92555.00;;;;10478802;28;46919;-61
2021/11/02 02:40:20;;;;;;;0.10;0.10;;;20.40;37.30;20.70;92554.00;;;;10479077;28;48017;-61
2021/11/02 02:45:21;;;;;;;0.35;0.10;;;20.40;37.20;20.70;92563.00;;;;10478594;28;48297;-63
2021/11/02 02:50:24;;;;;;;0.30;0.10;;;20.40;37.20;20.70;92553.00;;;;10425804;28;45353;-61
2021/11/02 02:55:30;;;;;;;0.70;0.20;;;20.40;37.20;20.70;92543.00;;;;10395823;28;46819;-61
2021/11/02 03:00:32;;;;;;;0.53;0.10;;;20.40;37.10;20.70;92522.00;;;;10394697;28;45177;-61
2021/11/02 03:05:33;;;;;;;0.00;0.00;;;20.40;37.10;20.70;92522.00;;;;10394867;28;45261;-60
2021/11/02 03:10:35;;;;;;;0.73;0.10;;;20.30;37.00;20.70;92522.00;;;;10394515;28;46349;-61
2021/11/02 03:48:11;;;;;;;0.30;0.10;;;20.30;36.90;20.70;92516.00;;;;10414585;28;45583;-61
2021/11/02 03:58:24;;;;;;;0.20;0.00;;;20.30;36.90;20.60;92531.00;;;;10476645;28;45369;-61
2021/11/02 04:30:41;;;;;;;1.70;0.70;;;20.20;36.80;20.60;92508.00;;;;10392681;28;45350;-59
2021/11/02 05:07:26;;;;;;;1.30;0.60;;;20.20;36.80;20.60;92510.00;;;;10475105;28;45238;-60
2021/11/02 05:50:50;;;;;;;0.55;0.20;;;20.40;36.80;20.70;92492.00;;;;10315314;28;45843;-61
2021/11/02 06:01:36;;;;;;;1.27;0.22;;;20.40;36.70;20.80;92505.00;;;;10398087;28;45892;-62
2021/11/02 06:06:17;;;;;;;1.52;0.30;;;20.50;36.80;20.80;92516.00;;;;10396048;28;45327;-60
2021/11/02 06:23:23;;;;;;;0.77;0.30;;;20.50;36.80;20.80;92522.00;;;;10397147;28;46428;-61
2021/11/02 06:32:50;;;;;;;;;;;20.50;36.60;20.80;92535.00;;;;10397348;28;46264;-61
2021/11/02 06:48:39;;;;;;;0.45;0.20;;;20.60;36.50;20.90;92522.00;;;;10395299;28;45191;-61
2021/11/02 07:21:03;;;;;;;0.80;0.40;;;20.60;36.10;20.90;92555.00;;;;10393840;28;45156;-60
2021/11/02 08:51:12;;;;;;;1.00;0.50;;;20.70;36.10;21.00;92595.00;;;;10413101;28;45883;-62
2021/11/02 08:56:15;;;;;;;1.58;0.55;;;20.70;36.00;21.00;92600.00;;;;10390274;28;45265;-60
2021/11/02 09:01:18;;;;;;;1.58;0.60;;;20.70;36.00;21.00;92579.00;;;;10391428;28;46302;-61
2021/11/02 09:06:23;;;;;;;1.38;0.40;;;20.70;36.00;21.00;92594.00;;;;10389463;28;45572;-60
2021/11/02 09:11:27;;;;;;;0.68;0.30;;;20.70;36.10;21.00;92590.00;;;;10421319;28;47354;-61
2021/11/02 09:16:28;;;;;;;1.35;0.32;;;20.70;36.10;21.00;92581.00;;;;10430236;28;45264;-59
2021/11/02 09:21:29;;;;;;;0.77;0.40;;;20.70;36.10;21.00;92583.00;;;;10441491;28;45407;-60
2021/11/02 09:26:32;;;;;;;0.52;0.43;;;20.70;36.20;21.00;92598.00;;;;10409312;28;45456;-61
2021/11/02 09:31:35;;;;;;;1.27;0.40;;;20.70;36.20;21.00;92589.00;;;;10414540;22;45370;-60
2021/11/02 09:36:43;;;;;;;0.73;0.30;;;20.70;36.30;21.00;92606.00;;;;10395494;28;45514;-59
2021/11/02 09:42:12;;;;;;;1.42;0.30;;;20.80;36.30;21.00;92615.00;;;;10369976;28;47945;-59
2021/11/02 09:47:37;;;;;;;0.73;0.30;;;20.70;36.30;21.00;92604.00;;;;10402243;28;45347;-58
2021/11/02 09:53:10;;;;;;;0.35;0.28;;;20.70;36.30;21.00;92601.00;;;;10390930;28;45476;-59
2021/11/02 09:58:56;;;;;;;0.70;0.30;;;20.80;36.30;21.00;92600.00;;;;10390792;28;45183;-59
2021/11/02 10:04:24;;;;;;;0.20;0.13;;;20.70;36.30;21.10;92600.00;;;;10384193;28;45406;-60
2021/11/02 10:09:45;;;;;;;0.93;0.30;;;20.80;36.40;21.00;92620.00;;;;10400880;28;46858;-59
2021/11/02 10:15:07;;;;;;;0.55;0.20;;;20.80;36.40;21.10;92603.00;;;;10384780;28;45569;-59
2021/11/02 10:20:52;;;;;;;0.10;0.00;;;20.80;36.40;21.10;92601.00;;;;10387872;28;46867;-60
2021/11/02 10:26:54;;;;;;;0.40;0.25;;;20.80;36.30;21.10;92586.00;;;;10367986;28;46431;-59
2021/11/02 10:32:06;;;;;;;0.63;0.20;;;20.80;36.50;21.00;92588.00;;;;10388243;28;45478;-59
2021/11/02 10:37:39;;;;;;;0.68;0.30;;;20.80;36.50;21.10;92602.00;;;;10397477;28;45482;-61
2021/11/02 10:43:28;;;;;;;0.30;0.20;;;20.80;36.50;21.10;92599.00;;;;10392548;28;47100;-62
2021/11/02 10:48:48;;;;;;;0.45;0.22;;;20.80;36.50;21.10;92605.00;;;;10386724;28;45249;-59
2021/11/02 10:54:33;;;;;;;0.20;0.10;;;20.80;37.20;21.10;92597.00;;;;10393390;28;46547;-59
2021/11/02 10:59:41;;;;;;;0.47;0.20;;;20.80;36.50;21.10;92598.00;;;;10389423;28;45695;-59
2021/11/02 11:04:47;;;;;;;0.30;0.13;;;20.80;36.60;21.10;92593.00;;;;10381710;28;45304;-59
2021/11/02 11:09:52;;;;;;;1.05;0.20;;;20.80;36.60;21.10;92592.00;;;;10403668;28;45443;-60
2021/11/02 11:14:55;;;;;;;0.73;0.00;;;20.80;36.80;21.10;92606.00;;;;10419581;28;47194;-60
2021/11/02 11:20:13;;;;;;;1.00;0.10;;;20.80;36.70;21.10;92586.00;;;;10436125;28;45449;-60
2021/11/02 11:25:15;;;;;;;0.10;0.00;;;20.80;36.70;21.10;92584.00;;;;10436610;28;45321;-60
2021/11/02 11:30:19;;;;;;;0.20;0.10;;;20.90;36.70;21.10;92588.00;;;;10435673;28;45303;-59
2021/11/02 11:35:20;;;;;;;2.30;0.10;;;20.90;36.70;21.20;92585.00;;;;10435940;28;45493;-59
2021/11/02 11:40:24;;;;;;;0.15;0.10;;;20.80;36.60;21.20;92572.00;;;;10435187;28;45973;-60
2021/11/02 11:45:28;;;;;;;0.10;0.08;;;20.80;36.70;21.20;92574.00;;;;10435944;28;47311;-60
2021/11/02 11:50:30;;;;;;;0.17;0.00;;;20.80;36.70;21.20;92567.00;;;;10406153;28;45522;-60
2021/11/02 11:55:41;;;;;;;1.58;0.20;;;20.80;36.70;21.20;92569.00;;;;10377843;28;46982;-60
2021/11/02 12:00:48;;;;;;;1.50;0.20;;;20.90;36.80;21.20;92557.00;;;;10376677;28;48601;-61
2021/11/02 12:06:06;;;;;;;1.83;0.10;;;20.90;37.00;21.20;92563.00;;;;10393799;28;45233;-61
2021/11/02 12:11:08;;;;;;;0.10;0.00;;;20.80;37.00;21.20;92580.00;;;;10376311;28;47344;-60
2021/11/02 12:16:23;;;;;;;0.45;0.10;;;20.80;37.00;21.20;92563.00;;;;10393094;28;45151;-60
2021/11/02 12:21:27;;;;;;;0.25;0.00;;;20.90;37.10;21.20;92578.00;;;;10392814;28;45459;-60
2021/11/02 12:26:49;;;;;;;0.30;0.10;;;20.90;37.10;21.20;92559.00;;;;10393029;28;45330;-61
2021/11/02 12:32:05;;;;;;;0.68;0.17;;;20.90;37.20;21.10;92563.00;;;;10390220;28;46311;-59
2021/11/02 12:37:13;;;;;;;0.00;0.00;;;20.90;37.20;21.20;92561.00;;;;10376177;28;47349;-59
2021/11/02 12:42:20;;;;;;;0.00;0.00;;;20.90;37.30;21.20;92575.00;;;;10376101;28;46991;-60
2021/11/02 12:47:24;;;;;;;0.52;0.10;;;20.90;37.30;21.20;92556.00;;;;10376271;28;47948;-64
2021/11/02 12:52:36;;;;;;;0.38;0.00;;;20.90;37.20;21.30;92580.00;;;;10375922;28;46992;-59
2021/11/02 12:57:44;;;;;;;0.10;0.00;;;20.90;37.40;21.20;92580.00;;;;10392184;28;45240;-59
2021/11/02 13:02:52;;;;;;;0.00;0.00;;;20.90;37.40;21.20;92582.00;;;;10393529;28;45721;-63
2021/11/02 13:08:09;;;;;;;0.57;0.20;;;20.90;37.30;21.20;92586.00;;;;10390594;28;45629;-59
2021/11/02 13:13:17;;;;;;;0.20;0.03;;;20.90;37.30;21.20;92593.00;;;;10392461;28;46405;-59
2021/11/02 13:18:38;;;;;;;0.98;0.10;;;20.90;37.20;21.20;92576.00;;;;10374318;28;46666;-60
2021/11/02 13:23:42;;;;;;;0.68;0.20;;;20.90;37.20;21.20;92599.00;;;;10375156;28;48261;-61
2021/11/02 13:28:43;;;;;;;0.20;0.10;;;20.90;37.20;21.20;92595.00;;;;10373871;28;46907;-60
2021/11/02 13:34:01;;;;;;;0.45;0.13;;;20.90;37.20;21.20;92582.00;;;;10391566;28;46446;-61
2021/11/02 13:39:11;;;;;;;0.68;0.00;;;20.90;37.90;21.20;92607.00;;;;10409729;28;45371;-60
2021/11/02 13:44:14;;;;;;;0.10;0.00;;;20.90;37.20;21.20;92614.00;;;;10432138;28;45487;-61
2021/11/02 13:49:17;;;;;;;1.05;0.55;;;20.90;37.20;21.20;92615.00;;;;10395660;28;47082;-59
2021/11/02 13:54:20;;;;;;;0.50;0.10;;;20.90;37.20;21.20;92605.00;;;;10388315;28;46274;-60
2021/11/02 13:59:21;;;;;;;0.00;0.00;;;20.90;37.20;21.20;92592.00;;;;10389201;28;45344;-60
2021/11/02 14:04:37;;;;;;;1.35;0.10;;;20.90;37.10;21.20;92583.00;;;;10395212;28;45467;-60
2021/11/02 14:09:43;;;;;;;1.85;0.10;;;20.90;37.10;21.20;92596.00;;;;10386979;28;45591;-61
2021/11/02 14:14:43;;;;;;;0.65;0.10;;;20.90;37.10;21.20;92602.00;;;;10454370;28;45364;-60
2021/11/02 14:19:52;;;;;;;0.28;0.10;;;20.90;37.00;21.20;92595.00;;;;10379902;28;48371;-60
2021/11/02 14:25:16;;;;;;;0.08;0.05;;;20.90;37.00;21.20;92583.00;;;;10402185;28;45169;-60
2021/11/02 14:30:32;;;;;;;0.10;0.00;;;20.90;37.00;21.20;92596.00;;;;10394870;28;45405;-60
2021/11/02 14:35:54;;;;;;;0.10;0.00;;;20.90;37.00;21.20;92582.00;;;;10393459;28;45494;-60
2021/11/02 14:41:24;;;;;;;0.10;0.00;;;20.90;37.00;21.20;92603.00;;;;10393589;28;45607;-60
2021/11/02 14:46:32;;;;;;;0.20;0.10;;;20.90;36.90;21.20;92603.00;;;;10395652;28;45348;-60
2021/11/02 14:51:34;;;;;;;0.32;0.10;;;20.90;36.90;21.30;92571.00;;;;10407019;28;45627;-60
2021/11/02 14:56:34;;;;;;;0.55;0.10;;;20.90;36.80;21.40;92565.00;;;;10421467;28;46881;-61
2021/11/02 15:01:38;;;;;;;0.20;0.10;;;21.00;37.10;21.30;92587.00;;;;10408247;28;45439;-62
2021/11/02 15:06:43;;;;;;;0.20;0.10;;;20.90;37.00;21.20;92581.00;;;;10394505;28;45407;-63
2021/11/02 15:11:47;;;;;;;0.52;0.10;;;20.90;36.50;21.30;92588.00;;;;10393078;28;46234;-61
2021/11/02 15:16:51;;;;;;;1.90;0.10;;;21.00;35.90;21.30;92601.00;;;;10394401;28;46271;-63
2021/11/02 15:21:57;;;;;;;0.90;0.20;;;21.00;36.40;21.40;92603.00;;;;10392399;28;47151;-70
2021/11/02 15:27:06;;;;;;;4.85;0.20;;;21.10;36.50;21.40;92609.00;;;;10410343;28;45402;-63
2021/11/02 15:32:21;;;;;;;0.10;0.00;;;21.10;36.50;21.30;92600.00;;;;10395030;28;45266;-61
2021/11/02 15:37:30;;;;;;;3.53;0.20;;;21.00;36.40;21.20;92591.00;;;;10393918;28;45335;-63
2021/11/02 15:42:33;;;;;;;1.25;0.15;;;21.00;35.60;21.20;92573.00;;;;10376621;28;48002;-61
2021/11/02 15:47:48;;;;;;;1.85;0.10;;;20.90;36.00;21.30;92577.00;;;;10393901;28;45335;-61
2021/11/02 15:52:55;;;;;;;1.35;0.10;;;21.00;36.20;21.30;92593.00;;;;10393167;28;45352;-61
2021/11/02 15:57:59;;;;;;;0.35;0.10;;;21.00;36.50;21.30;92596.00;;;;10377941;28;45656;-62
2021/11/02 16:03:00;;;;;;;0.82;0.10;;;21.00;36.70;21.20;92599.00;;;;10336165;28;47258;-63
2021/11/02 16:08:15;;;;;;;0.35;0.08;;;21.00;36.60;21.20;92594.00;;;;10353313;28;45372;-61
2021/11/02 16:13:16;;;;;;;1.42;0.10;;;21.00;36.40;21.20;92598.00;;;;10352279;28;47245;-65
2021/11/02 16:18:32;;;;;;;1.20;0.10;;;21.00;36.40;21.10;92602.00;;;;10351898;28;45858;-60
2021/11/02 16:23:50;;;;;;;0.53;0.20;;;20.90;36.40;21.20;92603.00;;;;10334878;28;47415;-59
2021/11/02 16:28:51;;;;;;;0.55;0.00;;;20.90;36.60;21.10;92620.00;;;;10383386;28;45307;-60
2021/11/02 16:33:52;;;;;;;0.10;0.10;;;20.90;35.40;21.10;92611.00;;;;10390637;28;45253;-60
2021/11/02 16:38:56;;;;;;;0.60;0.20;;;20.90;34.90;21.20;92620.00;;;;10409122;28;45389;-61
2021/11/02 16:44:07;;;;;;;0.35;0.20;;;20.90;35.10;21.20;92618.00;;;;10429926;28;47144;-63
2021/11/02 16:49:11;;;;;;;0.63;0.20;;;20.90;35.30;21.30;92623.00;;;;10410417;28;45324;-61
2021/11/02 16:54:15;;;;;;;0.50;0.30;;;20.90;35.20;21.20;92619.00;;;;10390426;28;45290;-59
2021/11/02 16:59:38;;;;;;;0.30;0.30;;;20.90;35.40;21.30;92606.00;;;;10391882;28;45165;-60
2021/11/02 17:04:39;;;;;;;0.73;0.30;;;20.90;35.40;21.30;92612.00;;;;10387609;28;45583;-61
2021/11/02 17:09:40;;;;;;;1.15;0.60;;;21.00;35.30;21.30;92618.00;;;;10387004;28;45344;-61
2021/11/02 17:14:41;;;;;;;0.98;0.50;;;20.90;35.40;21.30;92614.00;;;;10403916;22;45857;-64
2021/11/02 17:19:44;;;;;;;1.10;0.52;;;21.00;35.50;21.20;92625.00;;;;10386337;28;46416;-63
2021/11/02 17:24:47;;;;;;;1.40;0.60;;;21.00;35.60;21.20;92614.00;;;;10394483;28;47347;-63
2021/11/02 17:29:48;;;;;;;1.70;0.90;;;20.90;35.50;21.20;92617.00;;;;10384346;28;46041;-63
2021/11/02 17:34:49;;;;;;;2.60;1.30;;;20.90;35.50;21.20;92621.00;;;;10342764;28;48595;-64
2021/11/02 17:39:50;;;;;;;2.47;1.17;;;20.90;35.50;21.20;92631.00;;;;10350941;28;45374;-63
2021/11/02 17:44:51;;;;;;;2.72;1.17;;;20.90;35.70;21.20;92634.00;;;;10392458;28;45246;-63
2021/11/02 17:49:51;;;;;;;3.25;1.30;;;21.00;36.30;21.30;92640.00;;;;10378638;28;46332;-63
2021/11/02 17:54:52;;;;;;;4.15;2.05;;;20.90;35.50;21.20;92612.00;;;;10372215;28;46187;-62
2021/11/02 17:59:53;;;;;;;4.80;2.50;;;20.90;35.40;21.20;92635.00;;;;10379503;28;46562;-63
2021/11/02 18:04:58;;;;;;;6.97;3.08;;;20.90;35.30;21.20;92624.00;;;;10377176;28;46832;-64
2021/11/02 18:09:59;;;;;;;5.25;3.10;;;20.90;34.90;21.20;92628.00;;;;10396525;28;48037;-64
2021/11/02 18:15:03;;;;;;;5.75;2.80;;;20.90;35.00;21.20;92629.00;;;;10397670;28;46361;-64
2021/11/02 18:20:08;;;;;;;5.93;2.33;;;20.90;35.10;21.20;92630.00;;;;10367989;28;47747;-64
2021/11/02 18:25:10;;;;;;;6.28;2.97;;;20.90;35.00;21.20;92635.00;;;;10346917;28;47734;-64
2021/11/02 18:30:13;;;;;;;4.00;2.50;;;20.90;34.90;21.10;92625.00;;;;10396603;28;45459;-64
2021/11/02 18:35:15;;;;;;;9.52;2.42;;;20.90;34.90;21.20;92624.00;;;;10410880;28;48266;-64
2021/11/02 18:40:20;;;;;;;5.50;2.33;;;20.90;34.90;21.20;92639.00;;;;10410107;28;47147;-64
2021/11/02 18:45:24;;;;;;;3.33;1.90;;;20.90;35.00;21.20;92617.00;;;;10411611;28;45502;-65
2021/11/02 18:50:25;;;;;;;4.25;1.50;;;20.90;35.10;21.10;92638.00;;;;10411981;28;45499;-63
2021/11/02 18:55:27;;;;;;;3.50;1.38;;;20.90;35.30;21.20;92612.00;;;;10394200;28;45346;-63
2021/11/02 19:00:29;;;;;;;2.03;1.10;;;20.90;34.70;21.20;92612.00;;;;10394942;28;45667;-63
2021/11/02 19:05:29;;;;;;;2.35;1.13;;;20.90;34.50;21.20;92601.00;;;;10375561;28;45500;-65
2021/11/02 19:10:30;;;;;;;4.22;1.20;;;20.90;34.20;21.30;92608.00;;;;10335470;28;48351;-62
2021/11/02 19:15:31;;;;;;;1.52;1.00;;;20.90;34.30;21.30;92610.00;;;;10349790;28;47268;-62
2021/11/02 19:20:32;;;;;;;2.53;1.13;;;21.00;34.80;21.40;92587.00;;;;10366845;28;45205;-63
2021/11/02 19:25:33;;;;;;;2.25;1.10;;;21.00;35.00;21.40;92601.00;;;;10359688;28;47095;-63
2021/11/02 19:30:35;;;;;;;2.53;1.10;;;21.10;35.10;21.40;92603.00;;;;10376803;28;47194;-68
2021/11/02 19:35:38;;;;;;;3.75;1.27;;;21.10;35.20;21.40;92593.00;;;;10412177;28;45584;-68
2021/11/02 19:40:39;;;;;;;2.08;0.88;;;21.10;36.10;21.40;92609.00;;;;10411007;28;46310;-67
2021/11/02 19:45:40;;;;;;;1.65;1.10;;;21.10;35.40;21.40;92608.00;;;;10391393;28;46475;-65
2021/11/02 19:50:41;;;;;;;3.28;1.15;;;21.20;35.50;21.40;92601.00;;;;10384772;28;45386;-65
2021/11/02 19:55:42;;;;;;;2.33;1.00;;;21.10;35.40;21.50;92612.00;;;;10375905;28;47009;-62
2021/11/02 20:00:45;;;;;;;2.13;1.30;;;21.20;35.80;21.50;92608.00;;;;10389754;28;45440;-63
2021/11/02 20:05:48;;;;;;;2.15;1.08;;;21.20;35.70;21.40;92619.00;;;;10391795;28;48055;-63
2021/11/02 20:10:50;;;;;;;1.83;0.88;;;21.20;34.90;21.40;92607.00;;;;10390574;28;45270;-63
2021/11/02 20:15:51;;;;;;;2.45;1.00;;;21.10;34.10;21.40;92624.00;;;;10393229;28;45359;-63
2021/11/02 20:20:55;;;;;;;1.45;0.80;;;21.10;33.70;21.50;92614.00;;;;10391286;28;45372;-64
2021/11/02 20:25:59;;;;;;;1.73;0.90;;;21.10;33.40;21.60;92615.00;;;;10391988;28;45337;-63
2021/11/02 20:30:59;;;;;;;1.10;0.70;;;21.20;33.60;21.70;92627.00;;;;10388753;28;46201;-64
2021/11/02 20:36:02;;;;;;;1.55;0.75;;;21.30;33.80;21.70;92608.00;;;;10348045;28;47519;-64
2021/11/02 20:41:21;;;;;;;0.80;0.65;;;21.30;33.80;21.70;92611.00;;;;10347194;28;46138;-64
2021/11/02 20:46:24;;;;;;;1.77;0.70;;;21.40;34.00;21.80;92610.00;;;;10333298;28;47037;-64
2021/11/02 20:51:25;;;;;;;2.10;0.60;;;21.40;34.10;21.80;92606.00;;;;10386091;28;45567;-63
2021/11/02 20:56:26;;;;;;;1.00;0.70;;;21.50;34.20;21.90;92610.00;;;;10370686;28;45302;-63
2021/11/02 21:01:28;;;;;;;1.15;0.70;;;21.50;34.30;21.90;92616.00;;;;10371133;28;45387;-63
2021/11/02 21:06:32;;;;;;;1.00;0.63;;;21.50;34.30;21.90;92586.00;;;;10369757;28;45487;-63
2021/11/02 21:11:38;;;;;;;1.25;0.70;;;21.50;34.50;21.90;92593.00;;;;10387124;28;46264;-63
2021/11/02 21:16:44;;;;;;;1.17;0.70;;;21.50;34.50;21.90;92603.00;;;;10392212;28;45176;-62
2021/11/02 21:21:45;;;;;;;1.13;0.70;;;21.60;34.60;21.90;92590.00;;;;10373339;28;46225;-63
2021/11/02 21:26:46;;;;;;;0.65;0.57;;;21.50;34.60;21.80;92588.00;;;;10370653;28;45232;-62
2021/11/02 21:31:47;;;;;;;0.60;0.50;;;21.50;34.60;21.80;92559.00;;;;10370628;28;45389;-62
2021/11/02 21:36:48;;;;;;;2.47;0.40;;;21.50;34.70;21.70;92584.00;;;;10373564;28;46754;-62
2021/11/02 21:41:57;;;;;;;1.15;0.70;;;21.40;34.70;21.70;92574.00;;;;10370068;28;45319;-64
2021/11/02 21:47:14;;;;;;;1.05;0.50;;;21.40;34.80;21.70;92555.00;;;;10358899;28;45181;-62
2021/11/02 21:52:18;;;;;;;1.08;0.60;;;21.40;34.90;21.60;92546.00;;;;10381326;28;45415;-62
2021/11/02 21:57:26;;;;;;;0.55;0.32;;;21.30;34.90;21.60;92531.00;;;;10381595;28;46178;-62
2021/11/02 22:02:27;;;;;;;0.65;0.50;;;21.30;35.00;21.60;92517.00;;;;10374479;28;47371;-63
2021/11/02 22:07:28;;;;;;;0.65;0.50;;;21.30;35.10;21.40;92506.00;;;;10391620;28;45508;-63
2021/11/02 22:12:29;;;;;;;0.50;0.43;;;21.20;35.00;21.50;92510.00;;;;10391316;28;46355;-62
2021/11/02 22:17:30;;;;;;;0.47;0.40;;;21.20;35.00;21.50;92494.00;;;;10391782;28;45784;-61
2021/11/02 22:22:31;;;;;;;1.23;0.50;;;21.20;35.00;21.40;92486.00;;;;10391278;28;45108;-63
2021/11/02 22:27:37;;;;;;;0.60;0.30;;;21.10;35.00;21.40;92489.00;;;;10390142;28;46433;-61
2021/11/02 22:32:39;;;;;;;;;;;21.10;35.00;21.40;92479.00;;;;10396785;28;45268;-64
2021/11/02 22:37:40;;;;;;;0.50;0.40;;;21.10;35.10;21.40;92468.00;;;;10392353;28;46217;-64
2021/11/02 22:42:41;;;;;;;1.20;0.40;;;21.10;35.10;21.40;92485.00;;;;10411085;28;45174;-63
2021/11/02 22:47:42;;;;;;;1.02;0.50;;;21.10;35.20;21.40;92480.00;;;;10411677;28;46065;-61
2021/11/02 22:52:44;;;;;;;0.70;0.32;;;21.10;35.30;21.40;92476.00;;;;10412896;28;45428;-64
2021/11/02 22:57:46;;;;;;;0.45;0.40;;;21.10;35.40;21.40;92470.00;;;;10395956;28;45193;-62
2021/11/02 23:02:47;;;;;;;0.90;0.50;;;21.00;35.40;21.40;92461.00;;;;10394555;28;47507;-63
2021/11/02 23:07:48;;;;;;;0.75;0.45;;;21.00;35.40;21.30;92471.00;;;;10396080;28;45228;-61
2021/11/02 23:12:49;;;;;;;0.40;0.30;;;21.00;35.40;21.30;92476.00;;;;10440405;22;45410;-60
2021/11/02 23:17:49;;;;;;;0.52;0.30;;;21.00;35.50;21.30;92473.00;;;;10459142;28;45277;-60
2021/11/02 23:23:13;;;;;;;0.68;0.30;;;21.00;35.50;21.30;92484.00;;;;10456311;28;45263;-60
2021/11/02 23:28:16;;;;;;;0.63;0.28;;;21.00;35.50;21.30;92460.00;;;;10435922;28;45312;-60
2021/11/02 23:33:20;;;;;;;0.32;0.30;;;21.00;35.60;21.30;92465.00;;;;10433683;28;46589;-60
2021/11/02 23:38:22;;;;;;;0.35;0.20;;;20.90;35.60;21.30;92427.00;;;;10435112;28;45500;-60
2021/11/02 23:43:25;;;;;;;1.30;0.40;;;20.90;35.60;21.30;92410.00;;;;10435878;28;45533;-61
2021/11/02 23:48:27;;;;;;;0.30;0.30;;;20.90;35.60;21.30;92402.00;;;;10446903;28;45198;-60
2021/11/02 23:53:29;;;;;;;0.25;0.25;;;20.90;35.60;21.30;92403.00;;;;10476749;28;45307;-59
2021/11/02 23:58:30;;;;;;;0.30;0.30;;;20.90;35.70;21.20;92407.00;;;;10476857;28;45441;-60
